sensor_id;sensor_type;location;lat;lon;timestamp;temperature;humidity
1888;DHT22;944;51.574;6.980;2023-07-31T00:00:13;14.80;99.90
1888;DHT22;944;51.574;6.980;2023-07-31T00:02:41;14.80;99.90
1888;DHT22;944;51.574;6.980;2023-07-31T00:05:15;14.80;99.90
1888;DHT22;944;51.574;6.980;2023-07-31T00:07:42;14.80;99.90
1888;DHT22;944;51.574;6.980;2023-07-31T00:10:09;15.00;99.90
1888;DHT22;944;51.574;6.980;2023-07-31T00:12:37;14.80;99.90
1888;DHT22;944;51.574;6.980;2023-07-31T00:15:06;14.80;99.90
1888;DHT22;944;51.574;6.980;2023-07-31T00:17:36;14.70;99.90
1888;DHT22;944;51.574;6.980;2023-07-31T00:20:05;14.80;99.90
1888;DHT22;944;51.574;6.980;2023-07-31T00:22:36;14.90;99.90
1888;DHT22;944;51.574;6.980;2023-07-31T00:25:06;15.00;99.90
1888;DHT22;944;51.574;6.980;2023-07-31T00:27:35;15.00;99.90
1888;DHT22;944;51.574;6.980;2023-07-31T00:30:02;15.10;99.90
1888;DHT22;944;51.574;6.980;2023-07-31T00:32:29;15.10;99.90
1888;DHT22;944;51.574;6.980;2023-07-31T00:34:56;15.20;99.90
1888;DHT22;944;51.574;6.980;2023-07-31T00:37:23;15.30;99.90
1888;DHT22;944;51.574;6.980;2023-07-31T00:43:32;15.40;99.90
1888;DHT22;944;51.574;6.980;2023-07-31T00:46:03;15.50;99.90
1888;DHT22;944;51.574;6.980;2023-07-31T00:48:30;15.50;99.90
1888;DHT22;944;51.574;6.980;2023-07-31T00:50:58;15.50;99.90
1888;DHT22;944;51.574;6.980;2023-07-31T00:53:27;15.30;99.90
1888;DHT22;944;51.574;6.980;2023-07-31T00:55:54;15.50;99.90
1888;DHT22;944;51.574;6.980;2023-07-31T00:58:21;15.50;99.90
1888;DHT22;944;51.574;6.980;2023-07-31T01:00:50;15.50;99.90
1888;DHT22;944;51.574;6.980;2023-07-31T01:03:17;15.50;99.90
1888;DHT22;944;51.574;6.980;2023-07-31T01:05:49;15.60;99.90
1888;DHT22;944;51.574;6.980;2023-07-31T01:08:29;15.60;99.90
1888;DHT22;944;51.574;6.980;2023-07-31T01:11:04;15.50;99.90
1888;DHT22;944;51.574;6.980;2023-07-31T01:13:35;15.60;99.90
1888;DHT22;944;51.574;6.980;2023-07-31T01:16:04;15.60;99.90
1888;DHT22;944;51.574;6.980;2023-07-31T01:18:33;15.60;99.90
1888;DHT22;944;51.574;6.980;2023-07-31T01:24:20;15.60;99.90
1888;DHT22;944;51.574;6.980;2023-07-31T01:26:54;15.60;99.90
1888;DHT22;944;51.574;6.980;2023-07-31T01:29:29;15.60;99.90
1888;DHT22;944;51.574;6.980;2023-07-31T01:32:02;15.60;99.90
1888;DHT22;944;51.574;6.980;2023-07-31T01:34:30;15.50;99.90
1888;DHT22;944;51.574;6.980;2023-07-31T01:36:58;15.60;99.90
1888;DHT22;944;51.574;6.980;2023-07-31T01:39:25;15.60;99.90
1888;DHT22;944;51.574;6.980;2023-07-31T01:41:53;15.50;99.90
1888;DHT22;944;51.574;6.980;2023-07-31T01:44:20;15.60;99.90
1888;DHT22;944;51.574;6.980;2023-07-31T01:46:47;15.60;99.90
1888;DHT22;944;51.574;6.980;2023-07-31T01:49:16;15.60;99.90
1888;DHT22;944;51.574;6.980;2023-07-31T01:51:42;15.60;99.90
1888;DHT22;944;51.574;6.980;2023-07-31T01:54:09;15.60;99.90
1888;DHT22;944;51.574;6.980;2023-07-31T01:56:36;15.60;99.90
1888;DHT22;944;51.574;6.980;2023-07-31T01:59:05;15.60;99.90
1888;DHT22;944;51.574;6.980;2023-07-31T02:01:32;15.60;99.90
1888;DHT22;944;51.574;6.980;2023-07-31T02:03:59;15.60;99.90
1888;DHT22;944;51.574;6.980;2023-07-31T02:06:26;15.60;99.90
1888;DHT22;944;51.574;6.980;2023-07-31T02:08:53;15.60;99.90
1888;DHT22;944;51.574;6.980;2023-07-31T02:11:20;15.50;99.90
1888;DHT22;944;51.574;6.980;2023-07-31T02:13:47;15.60;99.90
1888;DHT22;944;51.574;6.980;2023-07-31T02:16:15;15.50;99.90
1888;DHT22;944;51.574;6.980;2023-07-31T02:18:42;15.60;99.90
1888;DHT22;944;51.574;6.980;2023-07-31T02:21:09;15.50;99.90
1888;DHT22;944;51.574;6.980;2023-07-31T02:23:36;15.50;99.90
1888;DHT22;944;51.574;6.980;2023-07-31T02:26:03;15.60;99.90
1888;DHT22;944;51.574;6.980;2023-07-31T02:28:30;15.50;99.90
1888;DHT22;944;51.574;6.980;2023-07-31T02:30:57;15.70;99.90
1888;DHT22;944;51.574;6.980;2023-07-31T02:33:25;15.50;99.90
1888;DHT22;944;51.574;6.980;2023-07-31T02:35:52;15.50;99.90
1888;DHT22;944;51.574;6.980;2023-07-31T02:38:19;15.50;99.90
1888;DHT22;944;51.574;6.980;2023-07-31T02:40:46;15.40;99.90
1888;DHT22;944;51.574;6.980;2023-07-31T02:43:13;15.50;99.90
1888;DHT22;944;51.574;6.980;2023-07-31T02:45:40;15.50;99.90
1888;DHT22;944;51.574;6.980;2023-07-31T02:48:07;15.60;99.90
1888;DHT22;944;51.574;6.980;2023-07-31T02:50:37;15.60;99.90
1888;DHT22;944;51.574;6.980;2023-07-31T02:53:04;15.60;99.90
1888;DHT22;944;51.574;6.980;2023-07-31T02:55:31;15.60;99.90
1888;DHT22;944;51.574;6.980;2023-07-31T02:57:58;15.60;99.90
1888;DHT22;944;51.574;6.980;2023-07-31T03:00:25;15.50;99.90
1888;DHT22;944;51.574;6.980;2023-07-31T03:02:53;15.50;99.90
1888;DHT22;944;51.574;6.980;2023-07-31T03:05:20;15.50;99.90
1888;DHT22;944;51.574;6.980;2023-07-31T03:07:49;15.50;99.90
1888;DHT22;944;51.574;6.980;2023-07-31T03:10:17;15.50;99.90
1888;DHT22;944;51.574;6.980;2023-07-31T03:12:46;15.60;99.90
1888;DHT22;944;51.574;6.980;2023-07-31T03:15:13;15.60;99.90
1888;DHT22;944;51.574;6.980;2023-07-31T03:17:41;15.60;99.90
1888;DHT22;944;51.574;6.980;2023-07-31T03:20:08;15.60;99.90
1888;DHT22;944;51.574;6.980;2023-07-31T03:22:36;15.60;99.90
1888;DHT22;944;51.574;6.980;2023-07-31T03:25:05;15.60;99.90
1888;DHT22;944;51.574;6.980;2023-07-31T03:27:34;15.60;99.90
1888;DHT22;944;51.574;6.980;2023-07-31T03:30:03;15.60;99.90
1888;DHT22;944;51.574;6.980;2023-07-31T03:32:30;15.60;99.90
1888;DHT22;944;51.574;6.980;2023-07-31T03:34:57;15.70;99.90
1888;DHT22;944;51.574;6.980;2023-07-31T03:37:24;15.70;99.90
1888;DHT22;944;51.574;6.980;2023-07-31T03:39:51;15.80;99.90
1888;DHT22;944;51.574;6.980;2023-07-31T03:42:20;15.80;99.90
1888;DHT22;944;51.574;6.980;2023-07-31T03:44:47;15.70;99.90
1888;DHT22;944;51.574;6.980;2023-07-31T03:47:14;15.80;99.90
1888;DHT22;944;51.574;6.980;2023-07-31T03:49:41;15.80;99.90
1888;DHT22;944;51.574;6.980;2023-07-31T03:52:08;15.90;99.90
1888;DHT22;944;51.574;6.980;2023-07-31T03:54:35;15.90;99.90
1888;DHT22;944;51.574;6.980;2023-07-31T03:57:02;16.00;99.90
1888;DHT22;944;51.574;6.980;2023-07-31T03:59:30;16.00;99.90
1888;DHT22;944;51.574;6.980;2023-07-31T04:02:04;16.10;99.90
1888;DHT22;944;51.574;6.980;2023-07-31T04:04:31;16.00;99.90
1888;DHT22;944;51.574;6.980;2023-07-31T04:06:58;16.10;99.90
1888;DHT22;944;51.574;6.980;2023-07-31T04:09:25;16.10;99.90
1888;DHT22;944;51.574;6.980;2023-07-31T04:11:52;16.10;99.90
1888;DHT22;944;51.574;6.980;2023-07-31T04:14:19;16.20;99.90
1888;DHT22;944;51.574;6.980;2023-07-31T04:16:48;16.10;99.90
1888;DHT22;944;51.574;6.980;2023-07-31T04:19:15;16.00;99.90
1888;DHT22;944;51.574;6.980;2023-07-31T04:21:42;16.10;99.90
1888;DHT22;944;51.574;6.980;2023-07-31T04:24:09;16.20;99.90
1888;DHT22;944;51.574;6.980;2023-07-31T04:26:36;16.20;99.90
1888;DHT22;944;51.574;6.980;2023-07-31T04:29:05;16.30;99.90
1888;DHT22;944;51.574;6.980;2023-07-31T04:31:33;16.30;99.90
1888;DHT22;944;51.574;6.980;2023-07-31T04:34:01;16.40;99.90
1888;DHT22;944;51.574;6.980;2023-07-31T04:36:28;16.40;99.90
1888;DHT22;944;51.574;6.980;2023-07-31T04:38:55;16.40;99.90
1888;DHT22;944;51.574;6.980;2023-07-31T04:41:22;16.40;99.90
1888;DHT22;944;51.574;6.980;2023-07-31T04:43:49;16.40;99.90
1888;DHT22;944;51.574;6.980;2023-07-31T04:46:16;16.40;99.90
1888;DHT22;944;51.574;6.980;2023-07-31T04:48:43;16.40;99.90
1888;DHT22;944;51.574;6.980;2023-07-31T04:51:12;16.40;99.90
1888;DHT22;944;51.574;6.980;2023-07-31T04:53:39;16.50;99.90
1888;DHT22;944;51.574;6.980;2023-07-31T04:56:06;16.40;99.90
1888;DHT22;944;51.574;6.980;2023-07-31T04:58:33;16.40;99.90
1888;DHT22;944;51.574;6.980;2023-07-31T05:01:00;16.40;99.90
1888;DHT22;944;51.574;6.980;2023-07-31T05:03:27;16.40;99.90
1888;DHT22;944;51.574;6.980;2023-07-31T05:05:54;16.40;99.90
1888;DHT22;944;51.574;6.980;2023-07-31T05:08:22;16.40;99.90
1888;DHT22;944;51.574;6.980;2023-07-31T05:10:50;16.40;99.90
1888;DHT22;944;51.574;6.980;2023-07-31T05:13:17;16.40;99.90
1888;DHT22;944;51.574;6.980;2023-07-31T05:15:44;16.40;99.90
1888;DHT22;944;51.574;6.980;2023-07-31T05:18:11;16.50;99.90
1888;DHT22;944;51.574;6.980;2023-07-31T05:20:38;16.50;99.90
1888;DHT22;944;51.574;6.980;2023-07-31T05:23:06;16.60;99.90
1888;DHT22;944;51.574;6.980;2023-07-31T05:25:35;16.60;99.90
1888;DHT22;944;51.574;6.980;2023-07-31T05:28:02;16.60;99.90
1888;DHT22;944;51.574;6.980;2023-07-31T05:30:30;16.60;99.90
1888;DHT22;944;51.574;6.980;2023-07-31T05:32:57;16.60;99.90
1888;DHT22;944;51.574;6.980;2023-07-31T05:35:24;16.70;99.90
1888;DHT22;944;51.574;6.980;2023-07-31T05:37:51;16.60;99.90
1888;DHT22;944;51.574;6.980;2023-07-31T05:40:18;16.60;99.90
1888;DHT22;944;51.574;6.980;2023-07-31T05:42:46;16.60;99.90
1888;DHT22;944;51.574;6.980;2023-07-31T05:45:13;16.60;99.90
1888;DHT22;944;51.574;6.980;2023-07-31T05:47:40;16.50;99.90
1888;DHT22;944;51.574;6.980;2023-07-31T05:50:10;16.50;99.90
1888;DHT22;944;51.574;6.980;2023-07-31T05:52:37;16.50;99.90
1888;DHT22;944;51.574;6.980;2023-07-31T05:55:05;16.50;99.90
1888;DHT22;944;51.574;6.980;2023-07-31T06:01:17;16.40;99.90
1888;DHT22;944;51.574;6.980;2023-07-31T06:03:44;16.40;99.90
1888;DHT22;944;51.574;6.980;2023-07-31T06:06:11;16.30;99.90
1888;DHT22;944;51.574;6.980;2023-07-31T06:08:39;16.20;99.90
1888;DHT22;944;51.574;6.980;2023-07-31T06:11:06;16.20;99.90
1888;DHT22;944;51.574;6.980;2023-07-31T06:13:34;16.20;99.90
1888;DHT22;944;51.574;6.980;2023-07-31T06:16:01;16.20;99.90
1888;DHT22;944;51.574;6.980;2023-07-31T06:18:36;16.20;99.90
1888;DHT22;944;51.574;6.980;2023-07-31T06:21:03;16.20;99.90
1888;DHT22;944;51.574;6.980;2023-07-31T06:23:30;16.20;99.90
1888;DHT22;944;51.574;6.980;2023-07-31T06:25:57;16.20;99.90
1888;DHT22;944;51.574;6.980;2023-07-31T06:32:05;16.20;99.90
1888;DHT22;944;51.574;6.980;2023-07-31T06:34:36;16.20;99.90
1888;DHT22;944;51.574;6.980;2023-07-31T06:37:09;16.20;99.90
1888;DHT22;944;51.574;6.980;2023-07-31T06:59:06;16.40;99.90
1888;DHT22;944;51.574;6.980;2023-07-31T07:01:48;16.40;99.90
1888;DHT22;944;51.574;6.980;2023-07-31T07:12:39;16.50;99.90
1888;DHT22;944;51.574;6.980;2023-07-31T07:18:52;16.50;99.90
1888;DHT22;944;51.574;6.980;2023-07-31T07:21:34;16.30;99.90
1888;DHT22;944;51.574;6.980;2023-07-31T07:24:09;16.50;99.90
1888;DHT22;944;51.574;6.980;2023-07-31T07:26:47;16.40;99.90
1888;DHT22;944;51.574;6.980;2023-07-31T07:33:03;16.40;99.90
1888;DHT22;944;51.574;6.980;2023-07-31T07:35:41;16.40;99.90
1888;DHT22;944;51.574;6.980;2023-07-31T07:38:19;16.30;99.90
1888;DHT22;944;51.574;6.980;2023-07-31T07:40:50;16.50;99.90
1888;DHT22;944;51.574;6.980;2023-07-31T07:43:20;16.40;99.90
1888;DHT22;944;51.574;6.980;2023-07-31T07:45:50;16.30;99.90
1888;DHT22;944;51.574;6.980;2023-07-31T07:48:18;16.40;99.90
1888;DHT22;944;51.574;6.980;2023-07-31T07:51:14;16.30;99.90
1888;DHT22;944;51.574;6.980;2023-07-31T07:53:46;16.50;99.90
1888;DHT22;944;51.574;6.980;2023-07-31T07:56:17;16.30;99.90
1888;DHT22;944;51.574;6.980;2023-07-31T07:58:48;16.20;99.90
1888;DHT22;944;51.574;6.980;2023-07-31T08:01:16;16.40;99.90
1888;DHT22;944;51.574;6.980;2023-07-31T08:03:47;16.40;99.90
1888;DHT22;944;51.574;6.980;2023-07-31T08:06:21;16.40;99.90
1888;DHT22;944;51.574;6.980;2023-07-31T08:13:09;16.40;99.90
1888;DHT22;944;51.574;6.980;2023-07-31T08:19:42;16.30;99.90
1888;DHT22;944;51.574;6.980;2023-07-31T08:22:31;16.20;99.90
1888;DHT22;944;51.574;6.980;2023-07-31T08:25:01;16.20;99.90
1888;DHT22;944;51.574;6.980;2023-07-31T08:27:59;16.40;99.90
1888;DHT22;944;51.574;6.980;2023-07-31T08:30:43;16.30;99.90
1888;DHT22;944;51.574;6.980;2023-07-31T08:33:24;16.20;99.90
1888;DHT22;944;51.574;6.980;2023-07-31T08:40:07;16.20;99.90
1888;DHT22;944;51.574;6.980;2023-07-31T08:43:09;16.10;99.90
1888;DHT22;944;51.574;6.980;2023-07-31T08:45:44;16.10;99.90
1888;DHT22;944;51.574;6.980;2023-07-31T08:48:28;16.00;99.90
1888;DHT22;944;51.574;6.980;2023-07-31T08:51:00;16.00;99.90
1888;DHT22;944;51.574;6.980;2023-07-31T08:53:51;16.10;99.90
1888;DHT22;944;51.574;6.980;2023-07-31T08:56:43;16.10;99.90
1888;DHT22;944;51.574;6.980;2023-07-31T08:59:33;16.00;99.90
1888;DHT22;944;51.574;6.980;2023-07-31T09:02:07;16.00;99.90
1888;DHT22;944;51.574;6.980;2023-07-31T09:05:36;16.00;99.90
1888;DHT22;944;51.574;6.980;2023-07-31T09:08:06;16.00;99.90
1888;DHT22;944;51.574;6.980;2023-07-31T09:10:40;15.90;99.90
1888;DHT22;944;51.574;6.980;2023-07-31T09:13:10;16.00;99.90
1888;DHT22;944;51.574;6.980;2023-07-31T09:15:41;16.00;99.90
1888;DHT22;944;51.574;6.980;2023-07-31T09:18:10;16.00;99.90
1888;DHT22;944;51.574;6.980;2023-07-31T09:20:39;16.00;99.90
1888;DHT22;944;51.574;6.980;2023-07-31T09:23:15;16.10;99.90
1888;DHT22;944;51.574;6.980;2023-07-31T09:25:57;16.20;99.90
1888;DHT22;944;51.574;6.980;2023-07-31T09:28:45;16.20;99.90
1888;DHT22;944;51.574;6.980;2023-07-31T09:31:14;16.20;99.90
1888;DHT22;944;51.574;6.980;2023-07-31T09:33:55;16.20;99.90
1888;DHT22;944;51.574;6.980;2023-07-31T09:36:32;16.50;99.90
1888;DHT22;944;51.574;6.980;2023-07-31T09:39:04;16.30;99.90
1888;DHT22;944;51.574;6.980;2023-07-31T09:41:36;16.40;99.90
1888;DHT22;944;51.574;6.980;2023-07-31T09:44:08;16.40;99.90
1888;DHT22;944;51.574;6.980;2023-07-31T09:46:35;16.50;99.90
1888;DHT22;944;51.574;6.980;2023-07-31T09:49:04;16.60;99.90
1888;DHT22;944;51.574;6.980;2023-07-31T09:51:36;16.50;99.90
1888;DHT22;944;51.574;6.980;2023-07-31T09:54:09;16.50;99.90
1888;DHT22;944;51.574;6.980;2023-07-31T09:56:41;16.50;99.90
1888;DHT22;944;51.574;6.980;2023-07-31T09:59:13;16.60;99.90
1888;DHT22;944;51.574;6.980;2023-07-31T10:01:42;16.60;99.90
1888;DHT22;944;51.574;6.980;2023-07-31T10:04:10;16.60;99.90
1888;DHT22;944;51.574;6.980;2023-07-31T10:06:39;16.70;99.90
1888;DHT22;944;51.574;6.980;2023-07-31T10:09:10;16.60;99.90
1888;DHT22;944;51.574;6.980;2023-07-31T10:11:42;16.60;99.90
1888;DHT22;944;51.574;6.980;2023-07-31T10:14:12;16.60;99.90
1888;DHT22;944;51.574;6.980;2023-07-31T10:16:40;16.60;99.90
1888;DHT22;944;51.574;6.980;2023-07-31T10:19:13;16.60;99.90
1888;DHT22;944;51.574;6.980;2023-07-31T10:22:13;16.70;99.90
1888;DHT22;944;51.574;6.980;2023-07-31T10:25:27;16.70;99.90
1888;DHT22;944;51.574;6.980;2023-07-31T10:54:12;16.70;99.90
1888;DHT22;944;51.574;6.980;2023-07-31T10:57:57;16.70;99.90
1888;DHT22;944;51.574;6.980;2023-07-31T11:00:40;16.80;99.90
1888;DHT22;944;51.574;6.980;2023-07-31T11:03:17;16.80;99.90
1888;DHT22;944;51.574;6.980;2023-07-31T11:09:24;17.00;99.90
1888;DHT22;944;51.574;6.980;2023-07-31T11:12:27;17.20;99.90
1888;DHT22;944;51.574;6.980;2023-07-31T11:18:23;17.20;99.90
1888;DHT22;944;51.574;6.980;2023-07-31T11:21:27;17.00;99.90
1888;DHT22;944;51.574;6.980;2023-07-31T11:24:52;17.20;99.90
1888;DHT22;944;51.574;6.980;2023-07-31T11:27:45;17.20;99.90
1888;DHT22;944;51.574;6.980;2023-07-31T11:44:22;17.30;99.90
1888;DHT22;944;51.574;6.980;2023-07-31T11:50:36;17.40;99.90
1888;DHT22;944;51.574;6.980;2023-07-31T11:57:25;17.60;99.90
1888;DHT22;944;51.574;6.980;2023-07-31T12:00:20;17.50;99.90
1888;DHT22;944;51.574;6.980;2023-07-31T12:03:14;17.40;99.90
1888;DHT22;944;51.574;6.980;2023-07-31T12:12:58;17.70;99.90
1888;DHT22;944;51.574;6.980;2023-07-31T12:15:44;17.60;99.90
1888;DHT22;944;51.574;6.980;2023-07-31T12:18:19;17.70;99.90
1888;DHT22;944;51.574;6.980;2023-07-31T12:20:57;17.80;99.90
1888;DHT22;944;51.574;6.980;2023-07-31T12:24:21;17.70;99.90
1888;DHT22;944;51.574;6.980;2023-07-31T12:27:16;17.80;99.90
1888;DHT22;944;51.574;6.980;2023-07-31T12:37:38;17.90;99.90
1888;DHT22;944;51.574;6.980;2023-07-31T12:40:17;17.80;99.90
1888;DHT22;944;51.574;6.980;2023-07-31T12:43:13;17.70;99.90
1888;DHT22;944;51.574;6.980;2023-07-31T14:57:33;18.60;99.90
1888;DHT22;944;51.574;6.980;2023-07-31T15:07:59;18.50;99.90
1888;DHT22;944;51.574;6.980;2023-07-31T15:10:26;18.40;99.90
1888;DHT22;944;51.574;6.980;2023-07-31T15:12:53;18.30;99.90
1888;DHT22;944;51.574;6.980;2023-07-31T15:15:20;18.20;99.90
1888;DHT22;944;51.574;6.980;2023-07-31T15:17:47;18.10;99.90
1888;DHT22;944;51.574;6.980;2023-07-31T15:20:14;18.10;99.90
1888;DHT22;944;51.574;6.980;2023-07-31T15:22:43;17.90;99.90
1888;DHT22;944;51.574;6.980;2023-07-31T15:25:13;17.90;99.90
1888;DHT22;944;51.574;6.980;2023-07-31T15:27:40;17.80;99.90
1888;DHT22;944;51.574;6.980;2023-07-31T15:30:12;17.70;99.90
1888;DHT22;944;51.574;6.980;2023-07-31T15:32:39;17.70;99.90
1888;DHT22;944;51.574;6.980;2023-07-31T15:35:07;17.70;99.90
1888;DHT22;944;51.574;6.980;2023-07-31T15:37:34;17.70;99.90
1888;DHT22;944;51.574;6.980;2023-07-31T15:43:43;17.70;99.90
1888;DHT22;944;51.574;6.980;2023-07-31T15:46:13;17.70;99.90
1888;DHT22;944;51.574;6.980;2023-07-31T15:48:40;17.70;99.90
1888;DHT22;944;51.574;6.980;2023-07-31T15:51:13;17.70;99.90
1888;DHT22;944;51.574;6.980;2023-07-31T15:53:53;17.80;99.90
1888;DHT22;944;51.574;6.980;2023-07-31T16:01:04;17.70;99.90
1888;DHT22;944;51.574;6.980;2023-07-31T16:03:42;17.80;99.90
1888;DHT22;944;51.574;6.980;2023-07-31T16:06:36;17.80;99.90
1888;DHT22;944;51.574;6.980;2023-07-31T16:09:10;17.80;99.90
1888;DHT22;944;51.574;6.980;2023-07-31T16:11:41;17.80;99.90
1888;DHT22;944;51.574;6.980;2023-07-31T16:14:08;17.80;99.90
1888;DHT22;944;51.574;6.980;2023-07-31T16:16:38;17.80;99.90
1888;DHT22;944;51.574;6.980;2023-07-31T16:19:05;17.80;99.90
1888;DHT22;944;51.574;6.980;2023-07-31T16:21:35;17.70;99.90
1888;DHT22;944;51.574;6.980;2023-07-31T16:24:05;17.70;99.90
1888;DHT22;944;51.574;6.980;2023-07-31T16:26:33;17.50;99.90
1888;DHT22;944;51.574;6.980;2023-07-31T16:29:00;17.50;99.90
1888;DHT22;944;51.574;6.980;2023-07-31T16:31:28;17.50;99.90
1888;DHT22;944;51.574;6.980;2023-07-31T16:33:57;17.40;99.90
1888;DHT22;944;51.574;6.980;2023-07-31T16:40:10;17.30;99.90
1888;DHT22;944;51.574;6.980;2023-07-31T16:42:39;17.20;99.90
1888;DHT22;944;51.574;6.980;2023-07-31T16:45:08;17.20;99.90
1888;DHT22;944;51.574;6.980;2023-07-31T16:47:38;17.20;99.90
1888;DHT22;944;51.574;6.980;2023-07-31T16:50:10;17.20;99.90
1888;DHT22;944;51.574;6.980;2023-07-31T16:56:20;17.20;99.90
1888;DHT22;944;51.574;6.980;2023-07-31T16:59:06;17.20;99.90
1888;DHT22;944;51.574;6.980;2023-07-31T17:01:38;17.20;99.90
1888;DHT22;944;51.574;6.980;2023-07-31T17:04:08;17.20;99.90
1888;DHT22;944;51.574;6.980;2023-07-31T17:06:47;17.30;99.90
1888;DHT22;944;51.574;6.980;2023-07-31T17:09:14;17.20;99.90
1888;DHT22;944;51.574;6.980;2023-07-31T17:11:47;17.20;99.90
1888;DHT22;944;51.574;6.980;2023-07-31T17:22:28;17.20;99.90
1888;DHT22;944;51.574;6.980;2023-07-31T17:50:53;16.90;99.90
1888;DHT22;944;51.574;6.980;2023-07-31T17:53:46;16.80;99.90
1888;DHT22;944;51.574;6.980;2023-07-31T17:56:36;16.90;99.90
1888;DHT22;944;51.574;6.980;2023-07-31T17:59:12;16.90;99.90
1888;DHT22;944;51.574;6.980;2023-07-31T18:01:52;16.90;99.90
1888;DHT22;944;51.574;6.980;2023-07-31T18:04:22;16.80;99.90
1888;DHT22;944;51.574;6.980;2023-07-31T18:06:52;16.80;99.90
1888;DHT22;944;51.574;6.980;2023-07-31T18:09:21;16.70;99.90
1888;DHT22;944;51.574;6.980;2023-07-31T18:11:48;16.70;99.90
1888;DHT22;944;51.574;6.980;2023-07-31T18:14:16;16.60;99.90
1888;DHT22;944;51.574;6.980;2023-07-31T18:16:47;16.50;99.90
1888;DHT22;944;51.574;6.980;2023-07-31T18:19:22;16.60;99.90
1888;DHT22;944;51.574;6.980;2023-07-31T18:21:59;16.60;99.90
1888;DHT22;944;51.574;6.980;2023-07-31T18:24:39;16.60;99.90
1888;DHT22;944;51.574;6.980;2023-07-31T18:27:14;16.60;99.90
1888;DHT22;944;51.574;6.980;2023-07-31T18:29:51;16.60;99.90
1888;DHT22;944;51.574;6.980;2023-07-31T18:32:38;16.60;99.90
1888;DHT22;944;51.574;6.980;2023-07-31T18:35:11;16.50;99.90
1888;DHT22;944;51.574;6.980;2023-07-31T18:37:44;16.70;99.90
1888;DHT22;944;51.574;6.980;2023-07-31T18:40:14;16.60;99.90
1888;DHT22;944;51.574;6.980;2023-07-31T18:42:50;16.50;99.90
1888;DHT22;944;51.574;6.980;2023-07-31T18:45:39;16.50;99.90
1888;DHT22;944;51.574;6.980;2023-07-31T18:48:27;16.60;99.90
1888;DHT22;944;51.574;6.980;2023-07-31T18:51:32;16.50;99.90
1888;DHT22;944;51.574;6.980;2023-07-31T18:54:17;16.50;99.90
1888;DHT22;944;51.574;6.980;2023-07-31T18:56:53;16.50;99.90
1888;DHT22;944;51.574;6.980;2023-07-31T18:59:29;16.50;99.90
1888;DHT22;944;51.574;6.980;2023-07-31T19:01:59;16.50;99.90
1888;DHT22;944;51.574;6.980;2023-07-31T19:04:27;16.50;99.90
1888;DHT22;944;51.574;6.980;2023-07-31T19:07:09;16.60;99.90
1888;DHT22;944;51.574;6.980;2023-07-31T19:09:42;16.60;99.90
1888;DHT22;944;51.574;6.980;2023-07-31T19:12:11;16.50;99.90
1888;DHT22;944;51.574;6.980;2023-07-31T19:14:45;16.60;99.90
1888;DHT22;944;51.574;6.980;2023-07-31T19:17:15;16.60;99.90
1888;DHT22;944;51.574;6.980;2023-07-31T19:23:33;16.60;99.90
1888;DHT22;944;51.574;6.980;2023-07-31T19:26:03;16.60;99.90
1888;DHT22;944;51.574;6.980;2023-07-31T19:28:33;16.50;99.90
1888;DHT22;944;51.574;6.980;2023-07-31T19:31:00;16.60;99.90
1888;DHT22;944;51.574;6.980;2023-07-31T19:33:29;16.60;99.90
1888;DHT22;944;51.574;6.980;2023-07-31T19:36:04;16.60;99.90
1888;DHT22;944;51.574;6.980;2023-07-31T19:38:36;16.60;99.90
1888;DHT22;944;51.574;6.980;2023-07-31T19:41:07;16.60;99.90
1888;DHT22;944;51.574;6.980;2023-07-31T19:43:34;16.70;99.90
1888;DHT22;944;51.574;6.980;2023-07-31T19:46:09;16.70;99.90
1888;DHT22;944;51.574;6.980;2023-07-31T19:48:46;16.60;99.90
1888;DHT22;944;51.574;6.980;2023-07-31T19:51:40;16.60;99.90
1888;DHT22;944;51.574;6.980;2023-07-31T19:58:32;16.60;99.90
1888;DHT22;944;51.574;6.980;2023-07-31T20:01:12;16.50;99.90
1888;DHT22;944;51.574;6.980;2023-07-31T20:03:53;16.60;99.90
1888;DHT22;944;51.574;6.980;2023-07-31T20:06:23;16.60;99.90
1888;DHT22;944;51.574;6.980;2023-07-31T20:09:02;16.60;99.90
1888;DHT22;944;51.574;6.980;2023-07-31T20:12:02;16.60;99.90
1888;DHT22;944;51.574;6.980;2023-07-31T20:14:45;16.60;99.90
1888;DHT22;944;51.574;6.980;2023-07-31T20:17:38;16.60;99.90
1888;DHT22;944;51.574;6.980;2023-07-31T20:20:11;16.60;99.90
1888;DHT22;944;51.574;6.980;2023-07-31T20:22:51;16.60;99.90
1888;DHT22;944;51.574;6.980;2023-07-31T20:25:24;16.70;99.90
1888;DHT22;944;51.574;6.980;2023-07-31T20:28:09;16.50;99.90
1888;DHT22;944;51.574;6.980;2023-07-31T20:30:58;16.70;99.90
1888;DHT22;944;51.574;6.980;2023-07-31T20:33:34;16.70;99.90
1888;DHT22;944;51.574;6.980;2023-07-31T20:36:06;16.70;99.90
1888;DHT22;944;51.574;6.980;2023-07-31T20:38:54;16.70;99.90
1888;DHT22;944;51.574;6.980;2023-07-31T20:41:42;16.70;99.90
1888;DHT22;944;51.574;6.980;2023-07-31T20:44:29;16.70;99.90
1888;DHT22;944;51.574;6.980;2023-07-31T20:47:14;16.70;99.90
1888;DHT22;944;51.574;6.980;2023-07-31T20:49:55;16.70;99.90
1888;DHT22;944;51.574;6.980;2023-07-31T20:52:29;16.90;99.90
1888;DHT22;944;51.574;6.980;2023-07-31T20:55:06;16.80;99.90
1888;DHT22;944;51.574;6.980;2023-07-31T20:57:40;16.80;99.90
1888;DHT22;944;51.574;6.980;2023-07-31T21:00:10;16.70;99.90
1888;DHT22;944;51.574;6.980;2023-07-31T21:02:41;16.80;99.90
1888;DHT22;944;51.574;6.980;2023-07-31T21:05:09;16.80;99.90
1888;DHT22;944;51.574;6.980;2023-07-31T21:07:39;16.80;99.90
1888;DHT22;944;51.574;6.980;2023-07-31T21:10:08;16.90;99.90
1888;DHT22;944;51.574;6.980;2023-07-31T21:12:37;16.80;99.90
1888;DHT22;944;51.574;6.980;2023-07-31T21:15:12;16.80;99.90
1888;DHT22;944;51.574;6.980;2023-07-31T21:17:41;16.80;99.90
1888;DHT22;944;51.574;6.980;2023-07-31T21:20:27;16.80;99.90
1888;DHT22;944;51.574;6.980;2023-07-31T21:23:27;16.70;99.90
1888;DHT22;944;51.574;6.980;2023-07-31T21:26:17;16.70;99.90
1888;DHT22;944;51.574;6.980;2023-07-31T21:29:11;16.70;99.90
1888;DHT22;944;51.574;6.980;2023-07-31T21:31:43;16.70;99.90
1888;DHT22;944;51.574;6.980;2023-07-31T21:34:18;16.80;99.90
1888;DHT22;944;51.574;6.980;2023-07-31T21:40:32;16.70;99.90
1888;DHT22;944;51.574;6.980;2023-07-31T21:47:12;16.70;99.90
1888;DHT22;944;51.574;6.980;2023-07-31T21:54:13;16.70;99.90
1888;DHT22;944;51.574;6.980;2023-07-31T21:57:14;16.90;99.90
1888;DHT22;944;51.574;6.980;2023-07-31T22:00:34;16.50;99.90
